SJY284 WIII-WIKK
Flight info
| Callsign | SJY284 |
|---|---|
| Flight time | N/A |
| Altitude | 33000 |
| Route | ABAS2A/07L ABASA W14 ALTAR |
| Aircraft | B739/M-SDE2E3FGHIRWXY/LB1 |
Departure
| Time | N/A |
|---|---|
| Airport | Soekarno-Hatta International Airport (WIII) |
Arrival
| Time | 2026-05-05 10:11 |
|---|---|
| Airport | Depati Amir Airport (WIKK) |
| Time | Latitude | Longitude | Altitude | Speed | Heading |
|---|---|---|---|---|---|
| 2026-05-05 09:55 | -2.95804 | 106.84331 | 18681 ft | 368 kts | 319° |
| 2026-05-05 09:56 | -2.93898 | 106.82612 | 18201 ft | 369 kts | 319° |
| 2026-05-05 09:56 | -2.91990 | 106.80892 | 17664 ft | 369 kts | 319° |
| 2026-05-05 09:56 | -2.90089 | 106.79177 | 17179 ft | 367 kts | 319° |
| 2026-05-05 09:56 | -2.88196 | 106.77470 | 16698 ft | 365 kts | 319° |
| 2026-05-05 09:57 | -2.86316 | 106.75774 | 16211 ft | 364 kts | 319° |
| 2026-05-05 09:57 | -2.84441 | 106.74084 | 15756 ft | 362 kts | 319° |
| 2026-05-05 09:57 | -2.82574 | 106.72400 | 15275 ft | 361 kts | 319° |
| 2026-05-05 09:57 | -2.80713 | 106.70723 | 14805 ft | 359 kts | 319° |
| 2026-05-05 09:58 | -2.78859 | 106.69051 | 14332 ft | 358 kts | 319° |
| 2026-05-05 09:58 | -2.77011 | 106.67385 | 13858 ft | 357 kts | 319° |
| 2026-05-05 09:58 | -2.75169 | 106.65724 | 13358 ft | 356 kts | 319° |
| 2026-05-05 09:58 | -2.73332 | 106.64069 | 12868 ft | 354 kts | 319° |
| 2026-05-05 09:59 | -2.71518 | 106.62433 | 12389 ft | 347 kts | 319° |
| 2026-05-05 09:59 | -2.69755 | 106.60843 | 11929 ft | 336 kts | 319° |
| 2026-05-05 09:59 | -2.68046 | 106.59302 | 11570 ft | 326 kts | 319° |
| 2026-05-05 09:59 | -2.66372 | 106.57793 | 11210 ft | 323 kts | 319° |
| 2026-05-05 10:00 | -2.64710 | 106.56296 | 10817 ft | 321 kts | 319° |
| 2026-05-05 10:00 | -2.63052 | 106.54801 | 10457 ft | 319 kts | 319° |
| 2026-05-05 10:00 | -2.61432 | 106.53341 | 10299 ft | 309 kts | 319° |
| 2026-05-05 10:00 | -2.59861 | 106.51925 | 10163 ft | 299 kts | 319° |
| 2026-05-05 10:01 | -2.58340 | 106.50554 | 10016 ft | 291 kts | 319° |
| 2026-05-05 10:01 | -2.56842 | 106.49204 | 9695 ft | 289 kts | 319° |
| 2026-05-05 10:01 | -2.55351 | 106.47860 | 9339 ft | 288 kts | 319° |
| 2026-05-05 10:01 | -2.53863 | 106.46519 | 8989 ft | 287 kts | 319° |
| 2026-05-05 10:02 | -2.52382 | 106.45184 | 8642 ft | 286 kts | 319° |
| 2026-05-05 10:02 | -2.50908 | 106.43857 | 8306 ft | 284 kts | 319° |
| 2026-05-05 10:02 | -2.49442 | 106.42536 | 7974 ft | 283 kts | 319° |
| 2026-05-05 10:02 | -2.48209 | 106.41018 | 7620 ft | 283 kts | 296° |
| 2026-05-05 10:03 | -2.47547 | 106.39172 | 7318 ft | 281 kts | 287° |
| 2026-05-05 10:03 | -2.47001 | 106.37292 | 6971 ft | 281 kts | 286° |
| 2026-05-05 10:03 | -2.46471 | 106.35420 | 6614 ft | 277 kts | 286° |
| 2026-05-05 10:03 | -2.45952 | 106.33601 | 6292 ft | 269 kts | 287° |
| 2026-05-05 10:04 | -2.45440 | 106.31829 | 5967 ft | 261 kts | 287° |
| 2026-05-05 10:04 | -2.44935 | 106.30100 | 5665 ft | 258 kts | 287° |
| 2026-05-05 10:04 | -2.44431 | 106.28384 | 5363 ft | 257 kts | 287° |
| 2026-05-05 10:04 | -2.43927 | 106.26674 | 5066 ft | 256 kts | 287° |
| 2026-05-05 10:05 | -2.43422 | 106.24966 | 4764 ft | 256 kts | 287° |
| 2026-05-05 10:05 | -2.42919 | 106.23264 | 4455 ft | 255 kts | 286° |
| 2026-05-05 10:05 | -2.42416 | 106.21564 | 4149 ft | 255 kts | 286° |
| 2026-05-05 10:05 | -2.41790 | 106.19916 | 3820 ft | 254 kts | 304° |
| 2026-05-05 10:06 | -2.40510 | 106.18771 | 3580 ft | 243 kts | 336° |
| 2026-05-05 10:06 | -2.38969 | 106.18350 | 3593 ft | 219 kts | 355° |
| 2026-05-05 10:06 | -2.37502 | 106.18317 | 3522 ft | 206 kts | 0° |
| 2026-05-05 10:06 | -2.36095 | 106.18336 | 3434 ft | 200 kts | 0° |
| 2026-05-05 10:07 | -2.34694 | 106.18352 | 3383 ft | 203 kts | 0° |
| 2026-05-05 10:07 | -2.33251 | 106.18352 | 3167 ft | 210 kts | 356° |
| 2026-05-05 10:07 | -2.31820 | 106.18123 | 2966 ft | 205 kts | 346° |
| 2026-05-05 10:07 | -2.30475 | 106.17763 | 2749 ft | 197 kts | 344° |
| 2026-05-05 10:08 | -2.29184 | 106.17406 | 2517 ft | 188 kts | 344° |
| 2026-05-05 10:08 | -2.27965 | 106.17076 | 2288 ft | 176 kts | 345° |
| 2026-05-05 10:08 | -2.26801 | 106.16762 | 2049 ft | 169 kts | 345° |
| 2026-05-05 10:08 | -2.25696 | 106.16463 | 1829 ft | 161 kts | 345° |
| 2026-05-05 10:09 | -2.24628 | 106.16174 | 1646 ft | 158 kts | 345° |
| 2026-05-05 10:09 | -2.23608 | 106.15898 | 1448 ft | 147 kts | 345° |
| 2026-05-05 10:09 | -2.22643 | 106.15637 | 1257 ft | 142 kts | 345° |
| 2026-05-05 10:09 | -2.21682 | 106.15378 | 1080 ft | 145 kts | 345° |
| 2026-05-05 10:10 | -2.20709 | 106.15115 | 899 ft | 145 kts | 345° |
| 2026-05-05 10:10 | -2.19744 | 106.14854 | 712 ft | 143 kts | 345° |
| 2026-05-05 10:10 | -2.18783 | 106.14599 | 483 ft | 142 kts | 346° |
| 2026-05-05 10:10 | -2.17837 | 106.14337 | 318 ft | 141 kts | 344° |
| 2026-05-05 10:11 | -2.16887 | 106.14077 | 147 ft | 142 kts | 345° |
| 2026-05-05 10:11 | -2.16029 | 106.13845 | 117 ft | 102 kts | 344° |
| 2026-05-05 10:11 | -2.15588 | 106.13713 | 114 ft | 27 kts | 321° |
| 2026-05-05 10:11 | -2.15534 | 106.13702 | 118 ft | 3 kts | 73° |
| 2026-05-05 10:12 | -2.15544 | 106.13716 | 116 ft | 3 kts | 147° |
| 2026-05-05 10:12 | -2.15582 | 106.13725 | 114 ft | 11 kts | 171° |
| 2026-05-05 10:12 | -2.15650 | 106.13772 | 116 ft | 14 kts | 92° |
| 2026-05-05 10:12 | -2.15630 | 106.13855 | 113 ft | 9 kts | 75° |
| 2026-05-05 10:13 | -2.15627 | 106.13868 | 113 ft | 0 kts | 74° |
| 2026-05-05 10:13 | -2.15625 | 106.13874 | 113 ft | 3 kts | 74° |
| 2026-05-05 10:13 | -2.15633 | 106.13913 | 112 ft | 9 kts | 131° |
| 2026-05-05 10:13 | -2.15647 | 106.13923 | 111 ft | 10 kts | 147° |
| 2026-05-05 10:14 | -2.15663 | 106.13931 | 111 ft | 10 kts | 157° |
| 2026-05-05 10:14 | -2.15728 | 106.13949 | 111 ft | 9 kts | 166° |
| 2026-05-05 10:14 | -2.15785 | 106.13964 | 111 ft | 3 kts | 163° |
| 2026-05-05 10:14 | -2.15795 | 106.13987 | 111 ft | 4 kts | 92° |
| 2026-05-05 10:15 | -2.15791 | 106.14011 | 111 ft | 3 kts | 77° |
| 2026-05-05 10:15 | -2.15790 | 106.14017 | 111 ft | 0 kts | 77° |